createdAt,value
2022-09-07T00:00:36.389Z,26.74
2022-09-07T00:03:02.895Z,26.61
2022-09-07T00:05:29.357Z,26.44
2022-09-07T00:07:55.736Z,26.48
2022-09-07T00:10:22.128Z,26.54
2022-09-07T00:12:48.538Z,26.56
2022-09-07T00:15:16.301Z,26.71
2022-09-07T00:17:42.762Z,26.51
2022-09-07T00:20:09.241Z,26.58
2022-09-07T00:22:35.599Z,26.56
2022-09-07T00:25:01.967Z,26.50
2022-09-07T00:27:28.361Z,26.49
2022-09-07T00:29:54.722Z,26.05
2022-09-07T00:32:21.107Z,27.60
2022-09-07T00:34:47.520Z,26.84
2022-09-07T00:37:13.924Z,26.55
2022-09-07T00:39:40.360Z,26.51
2022-09-07T00:42:06.789Z,26.39
2022-09-07T00:44:35.477Z,26.29
2022-09-07T00:47:01.915Z,26.46
2022-09-07T00:49:28.407Z,26.48
2022-09-07T00:51:54.783Z,26.48
2022-09-07T00:54:21.181Z,26.47
2022-09-07T00:56:47.623Z,26.52
2022-09-07T00:59:14.010Z,26.53
2022-09-07T01:01:40.468Z,26.57
2022-09-07T01:04:06.945Z,26.65
2022-09-07T01:06:33.340Z,26.15
2022-09-07T01:08:59.708Z,27.51
2022-09-07T01:11:26.145Z,27.45
2022-09-07T01:13:52.552Z,26.95
2022-09-07T01:16:18.964Z,26.71
2022-09-07T01:18:45.394Z,26.71
2022-09-07T01:21:11.792Z,26.60
2022-09-07T01:23:38.189Z,26.54
2022-09-07T01:26:04.587Z,26.65
2022-09-07T01:28:31.091Z,26.78
2022-09-07T01:30:57.650Z,26.76
2022-09-07T01:33:24.068Z,26.76
2022-09-07T01:35:50.466Z,26.81
2022-09-07T01:38:16.845Z,26.75
2022-09-07T01:40:43.244Z,26.73
2022-09-07T01:43:09.612Z,26.62
2022-09-07T01:45:35.980Z,27.65
2022-09-07T01:48:02.389Z,27.76
2022-09-07T01:50:28.780Z,27.25
2022-09-07T01:52:55.152Z,26.96
2022-09-07T01:55:21.644Z,26.82
2022-09-07T01:57:48.024Z,26.74
2022-09-07T02:00:14.458Z,26.73
2022-09-07T02:02:41.193Z,26.80
2022-09-07T02:05:07.656Z,26.84
2022-09-07T02:07:34.023Z,26.82
2022-09-07T02:10:00.421Z,26.84
2022-09-07T02:12:26.793Z,26.77
2022-09-07T02:14:53.206Z,26.76
2022-09-07T02:17:19.615Z,26.84
2022-09-07T02:19:45.991Z,26.35
2022-09-07T02:22:12.388Z,27.78
2022-09-07T02:24:38.800Z,27.46
2022-09-07T02:27:05.180Z,27.11
2022-09-07T02:29:31.548Z,26.85
2022-09-07T02:31:57.938Z,26.84
2022-09-07T02:34:24.349Z,26.72
2022-09-07T02:36:50.883Z,26.65
2022-09-07T02:39:17.317Z,26.70
2022-09-07T02:41:43.690Z,26.83
2022-09-07T02:44:10.082Z,26.72
2022-09-07T02:46:36.964Z,26.67
2022-09-07T02:49:03.508Z,26.70
2022-09-07T02:51:29.928Z,26.69
2022-09-07T02:53:56.492Z,26.63
2022-09-07T02:56:22.874Z,26.14
2022-09-07T02:58:49.299Z,27.85
2022-09-07T03:01:15.897Z,27.40
2022-09-07T03:03:42.370Z,26.90
2022-09-07T03:06:08.780Z,26.76
2022-09-07T03:08:35.209Z,26.56
2022-09-07T03:11:01.603Z,26.55
2022-09-07T03:13:27.998Z,26.47
2022-09-07T03:15:56.313Z,26.61
2022-09-07T03:18:22.913Z,26.57
2022-09-07T03:20:49.294Z,26.70
2022-09-07T03:23:15.716Z,26.67
2022-09-07T03:25:42.092Z,26.76
2022-09-07T03:28:08.476Z,26.76
2022-09-07T03:30:34.929Z,26.79
2022-09-07T03:33:01.354Z,26.21
2022-09-07T03:35:27.753Z,27.61
2022-09-07T03:37:54.187Z,27.33
2022-09-07T03:40:20.561Z,26.85
2022-09-07T03:42:46.968Z,26.50
2022-09-07T03:45:13.412Z,26.31
2022-09-07T03:47:39.794Z,26.28
2022-09-07T03:50:06.314Z,26.32
2022-09-07T03:52:32.728Z,26.31
2022-09-07T03:54:59.117Z,26.40
2022-09-07T03:57:25.596Z,26.42
2022-09-07T03:59:52.017Z,26.32
2022-09-07T04:02:18.435Z,26.28
2022-09-07T04:04:47.716Z,26.26
2022-09-07T04:07:14.159Z,26.20
2022-09-07T04:09:40.586Z,25.75
2022-09-07T04:12:06.962Z,27.58
2022-09-07T04:14:33.448Z,26.90
2022-09-07T04:17:01.785Z,26.33
2022-09-07T04:19:28.242Z,26.14
2022-09-07T04:21:54.649Z,26.03
2022-09-07T04:24:21.084Z,26.14
2022-09-07T04:26:47.473Z,26.09
2022-09-07T04:29:13.861Z,26.19
2022-09-07T04:31:40.236Z,26.27
2022-09-07T04:34:06.638Z,26.18
2022-09-07T04:36:33.057Z,26.25
2022-09-07T04:38:59.438Z,26.31
2022-09-07T04:41:25.875Z,26.43
2022-09-07T04:43:52.310Z,26.08
2022-09-07T04:46:18.754Z,27.75
2022-09-07T04:48:45.169Z,27.38
2022-09-07T04:51:11.594Z,26.80
2022-09-07T04:53:37.972Z,26.54
2022-09-07T04:56:04.430Z,26.52
2022-09-07T04:58:30.907Z,26.50
2022-09-07T05:00:57.416Z,26.55
2022-09-07T05:03:23.844Z,26.51
2022-09-07T05:05:50.276Z,26.43
2022-09-07T05:08:16.661Z,26.37
2022-09-07T05:10:43.045Z,26.32
2022-09-07T05:13:09.476Z,26.22
2022-09-07T05:15:35.870Z,26.20
2022-09-07T05:18:02.262Z,26.15
2022-09-07T05:20:28.681Z,27.68
2022-09-07T05:22:55.059Z,26.83
2022-09-07T05:25:21.488Z,26.31
2022-09-07T05:27:47.901Z,26.27
2022-09-07T05:33:00.680Z,26.33
2022-09-07T05:35:27.096Z,26.45
2022-09-07T05:37:53.494Z,26.42
2022-09-07T05:40:19.907Z,26.64
2022-09-07T05:42:46.289Z,26.63
2022-09-07T05:45:12.706Z,26.77
2022-09-07T05:47:39.127Z,26.74
2022-09-07T05:50:05.509Z,26.25
2022-09-07T05:52:31.922Z,28.48
2022-09-07T05:55:13.007Z,27.59
2022-09-07T05:57:44.689Z,27.13
2022-09-07T06:00:11.073Z,27.34
2022-09-07T06:02:39.781Z,27.25
2022-09-07T06:05:06.410Z,27.59
2022-09-07T06:07:32.796Z,27.62
2022-09-07T06:12:48.472Z,27.67
2022-09-07T06:15:15.887Z,27.79
2022-09-07T06:17:42.321Z,27.88
2022-09-07T06:20:08.876Z,27.96
2022-09-07T06:22:35.304Z,28.20
2022-09-07T06:25:01.715Z,29.63
2022-09-07T06:27:28.100Z,28.32
2022-09-07T06:29:54.726Z,28.19
2022-09-07T06:35:07.558Z,28.24
2022-09-07T06:37:34.000Z,28.31
2022-09-07T06:40:00.484Z,28.49
2022-09-07T06:42:27.035Z,28.16
2022-09-07T06:44:57.577Z,28.36
2022-09-07T06:47:24.012Z,28.35
2022-09-07T06:49:50.402Z,28.41
2022-09-07T06:52:16.812Z,28.00
2022-09-07T06:54:58.850Z,29.50
2022-09-07T06:57:25.739Z,29.17
2022-09-07T06:59:53.289Z,28.34
2022-09-07T07:02:19.681Z,28.03
2022-09-07T07:04:46.547Z,28.30
2022-09-07T07:07:12.963Z,28.13
2022-09-07T07:09:39.351Z,28.39
2022-09-07T07:12:05.773Z,28.35
2022-09-07T07:14:35.538Z,28.29
2022-09-07T07:17:02.864Z,28.45
2022-09-07T07:19:29.267Z,28.47
2022-09-07T07:22:29.652Z,28.45
2022-09-07T07:24:42.090Z,28.82
2022-09-07T07:27:08.473Z,30.12
2022-09-07T07:29:35.188Z,29.07
2022-09-07T07:32:01.705Z,28.73
2022-09-07T07:34:28.140Z,28.68
2022-09-07T07:36:54.644Z,28.63
2022-09-07T07:42:07.438Z,29.08
2022-09-07T07:44:33.973Z,29.02
2022-09-07T07:47:00.421Z,28.93
2022-09-07T07:49:26.833Z,28.98
2022-09-07T07:54:39.667Z,28.83
2022-09-07T07:57:06.181Z,30.81
2022-09-07T07:59:32.521Z,30.01
2022-09-07T08:01:59.334Z,28.98
2022-09-07T08:04:26.051Z,28.42
2022-09-07T08:06:52.458Z,27.83
2022-09-07T08:09:18.872Z,28.19
2022-09-07T08:11:45.230Z,27.78
2022-09-07T08:14:11.594Z,27.71
2022-09-07T08:16:37.995Z,27.91
2022-09-07T08:19:04.492Z,27.65
2022-09-07T08:21:30.876Z,27.80
2022-09-07T08:23:57.335Z,27.84
2022-09-07T08:26:23.769Z,28.56
2022-09-07T08:28:50.253Z,29.32
2022-09-07T08:31:16.733Z,28.29
2022-09-07T08:33:43.305Z,28.33
2022-09-07T08:36:09.732Z,28.18
2022-09-07T08:38:36.204Z,28.30
2022-09-07T08:41:02.598Z,28.56
2022-09-07T08:43:29.056Z,28.41
2022-09-07T08:45:55.733Z,28.12
2022-09-07T08:48:22.217Z,28.08
2022-09-07T08:50:48.578Z,28.25
2022-09-07T08:53:14.964Z,28.51
2022-09-07T08:55:41.359Z,28.45
2022-09-07T08:58:14.554Z,30.03
2022-09-07T09:04:15.593Z,28.93
2022-09-07T09:06:10.829Z,28.99
2022-09-07T09:06:26.511Z,28.99
2022-09-07T09:08:52.960Z,28.65
2022-09-07T09:11:19.348Z,29.04
2022-09-07T09:13:45.697Z,28.76
2022-09-07T09:16:12.238Z,28.73
2022-09-07T09:18:38.701Z,28.93
2022-09-07T09:21:05.056Z,28.69
2022-09-07T09:23:31.439Z,28.61
2022-09-07T09:25:57.781Z,28.70
2022-09-07T09:28:25.594Z,30.32
2022-09-07T09:30:54.145Z,29.82
2022-09-07T09:33:20.825Z,29.63
2022-09-07T09:35:47.492Z,29.28
2022-09-07T09:38:13.870Z,29.20
2022-09-07T09:40:40.220Z,29.37
2022-09-07T09:43:06.760Z,28.95
2022-09-07T09:46:12.231Z,29.39
2022-09-07T09:48:19.572Z,29.10
2022-09-07T09:53:32.308Z,28.96
2022-09-07T09:55:58.698Z,28.81
2022-09-07T10:01:28.071Z,29.85
2022-09-07T10:06:26.017Z,29.27
2022-09-07T10:08:52.380Z,29.04
2022-09-07T10:11:18.748Z,29.31
2022-09-07T10:13:45.111Z,29.24
2022-09-07T10:16:11.645Z,29.71
2022-09-07T10:18:38.080Z,30.03
2022-09-07T10:21:04.439Z,29.90
2022-09-07T10:23:30.806Z,29.74
2022-09-07T10:25:57.151Z,29.74
2022-09-07T10:28:23.898Z,30.41
2022-09-07T10:30:50.622Z,30.96
2022-09-07T10:33:17.043Z,29.97
2022-09-07T10:35:43.523Z,29.48
2022-09-07T10:38:09.867Z,29.50
2022-09-07T10:40:36.239Z,29.53
2022-09-07T10:45:48.951Z,29.77
2022-09-07T10:48:15.306Z,29.84
2022-09-07T10:50:41.959Z,30.05
2022-09-07T10:53:36.562Z,30.36
2022-09-07T10:55:54.715Z,30.23
2022-09-07T10:59:01.033Z,29.86
2022-09-07T11:01:07.745Z,31.64
2022-09-07T11:03:34.471Z,31.06
2022-09-07T11:06:00.865Z,30.70
2022-09-07T11:08:27.350Z,30.30
2022-09-07T11:10:53.814Z,30.31
2022-09-07T11:13:20.166Z,30.57
2022-09-07T11:15:46.598Z,30.63
2022-09-07T11:18:13.064Z,30.57
2022-09-07T11:20:39.406Z,30.65
2022-09-07T11:23:05.795Z,30.70
2022-09-07T11:25:32.141Z,31.02
2022-09-07T11:27:58.653Z,31.21
2022-09-07T11:30:25.076Z,31.77
2022-09-07T11:32:51.483Z,32.62
2022-09-07T11:35:17.846Z,32.00
2022-09-07T11:37:44.208Z,32.00
2022-09-07T11:40:10.626Z,31.64
2022-09-07T11:42:44.436Z,31.29
2022-09-07T11:45:10.958Z,31.63
2022-09-07T11:47:37.292Z,31.38
2022-09-07T11:50:03.658Z,31.58
2022-09-07T11:52:30.262Z,31.13
2022-09-07T11:54:56.665Z,31.23
2022-09-07T11:57:23.008Z,31.35
2022-09-07T11:59:49.359Z,31.17
2022-09-07T12:02:15.811Z,31.49
2022-09-07T12:04:42.592Z,32.70
2022-09-07T12:07:09.479Z,31.93
2022-09-07T12:09:35.842Z,31.76
2022-09-07T12:12:02.204Z,31.33
2022-09-07T12:14:28.651Z,31.27
2022-09-07T12:16:55.499Z,31.02
2022-09-07T12:19:21.882Z,30.93
2022-09-07T12:21:48.280Z,31.34
2022-09-07T12:24:14.667Z,31.64
2022-09-07T12:26:41.022Z,31.85
2022-09-07T12:29:07.451Z,31.87
2022-09-07T12:31:39.693Z,32.26
2022-09-07T12:34:06.220Z,32.07
2022-09-07T12:36:32.799Z,33.64
2022-09-07T12:38:59.132Z,33.09
2022-09-07T12:41:25.583Z,32.59
2022-09-07T12:43:56.301Z,32.17
2022-09-07T12:46:22.725Z,32.30
2022-09-07T12:48:49.132Z,32.25
2022-09-07T12:51:16.073Z,32.07
2022-09-07T12:53:42.533Z,32.21
2022-09-07T12:56:16.718Z,32.22
2022-09-07T12:58:43.545Z,32.13
2022-09-07T13:01:10.017Z,31.99
2022-09-07T13:03:58.678Z,32.05
2022-09-07T13:07:01.815Z,31.91
2022-09-07T13:09:09.267Z,32.86
2022-09-07T13:11:35.658Z,33.40
2022-09-07T13:14:04.480Z,32.41
2022-09-07T13:16:31.858Z,32.50
2022-09-07T13:18:58.308Z,32.22
2022-09-07T13:21:24.698Z,32.45
2022-09-07T13:23:51.082Z,32.22
2022-09-07T13:26:17.482Z,32.25
2022-09-07T13:28:43.887Z,32.58
2022-09-07T13:31:10.294Z,32.47
2022-09-07T13:33:36.682Z,32.41
2022-09-07T13:36:03.048Z,32.52
2022-09-07T13:38:29.755Z,32.44
2022-09-07T13:40:56.117Z,32.60
2022-09-07T13:43:22.490Z,34.09
2022-09-07T13:45:48.930Z,33.64
2022-09-07T13:48:15.351Z,33.25
2022-09-07T13:50:41.709Z,33.04
2022-09-07T13:53:08.120Z,32.98
2022-09-07T13:55:35.610Z,32.85
2022-09-07T13:58:02.007Z,33.23
2022-09-07T14:00:28.410Z,33.14
2022-09-07T14:02:56.956Z,33.09
2022-09-07T14:05:23.592Z,33.01
2022-09-07T14:07:50.091Z,32.91
2022-09-07T14:10:16.451Z,33.21
2022-09-07T14:12:42.821Z,33.11
2022-09-07T14:15:10.327Z,32.94
2022-09-07T14:17:36.745Z,34.31
2022-09-07T14:20:03.189Z,33.54
2022-09-07T14:22:29.545Z,33.05
2022-09-07T14:24:55.901Z,33.06
2022-09-07T14:27:22.275Z,32.94
2022-09-07T14:29:48.645Z,32.88
2022-09-07T14:32:15.005Z,32.88
2022-09-07T14:34:42.913Z,32.87
2022-09-07T14:37:09.505Z,33.21
2022-09-07T14:39:35.946Z,33.15
2022-09-07T14:42:02.342Z,33.17
2022-09-07T14:44:28.708Z,33.11
2022-09-07T14:46:56.984Z,33.18
2022-09-07T14:49:23.500Z,32.90
2022-09-07T14:51:49.956Z,34.18
2022-09-07T14:54:16.392Z,33.36
2022-09-07T14:56:42.896Z,33.20
2022-09-07T14:59:09.337Z,32.75
2022-09-07T15:01:37.604Z,32.99
2022-09-07T15:04:04.529Z,32.99
2022-09-07T15:09:17.326Z,33.07
2022-09-07T15:11:43.694Z,33.21
2022-09-07T15:14:10.055Z,32.96
2022-09-07T15:16:36.430Z,33.27
2022-09-07T15:19:02.847Z,33.20
2022-09-07T15:21:29.455Z,33.25
2022-09-07T15:23:55.808Z,33.68
2022-09-07T15:29:08.916Z,33.29
2022-09-07T15:31:47.324Z,32.98
2022-09-07T15:34:20.898Z,33.02
2022-09-07T15:36:48.536Z,32.96
2022-09-07T15:39:15.074Z,32.91
2022-09-07T15:41:42.780Z,32.93
2022-09-07T15:44:09.422Z,32.80
2022-09-07T15:46:37.143Z,32.69
2022-09-07T15:49:03.667Z,32.75
2022-09-07T15:54:18.490Z,32.54
2022-09-07T15:57:48.487Z,32.70
2022-09-07T15:59:31.240Z,33.49
2022-09-07T16:01:58.595Z,32.79
2022-09-07T16:04:25.247Z,32.84
2022-09-07T16:06:51.692Z,32.70
2022-09-07T16:09:21.692Z,32.46
2022-09-07T16:11:50.063Z,32.64
2022-09-07T16:14:16.853Z,32.46
2022-09-07T16:19:29.601Z,32.77
2022-09-07T16:21:57.660Z,32.64
2022-09-07T16:24:24.140Z,32.87
2022-09-07T16:26:51.643Z,32.76
2022-09-07T16:29:18.012Z,31.92
2022-09-07T16:34:30.720Z,32.15
2022-09-07T16:36:57.079Z,31.95
2022-09-07T16:39:23.443Z,31.74
2022-09-07T16:41:49.811Z,31.76
2022-09-07T16:44:16.188Z,31.49
2022-09-07T16:46:42.585Z,31.49
2022-09-07T16:49:09.210Z,31.55
2022-09-07T16:51:35.551Z,31.50
2022-09-07T16:54:01.928Z,31.42
2022-09-07T16:56:28.379Z,31.42
2022-09-07T16:58:55.099Z,31.64
2022-09-07T17:01:21.934Z,31.63
2022-09-07T17:03:48.395Z,31.44
2022-09-07T17:06:14.825Z,32.76
2022-09-07T17:08:41.183Z,32.14
2022-09-07T17:11:08.707Z,31.86
2022-09-07T17:13:35.142Z,31.78
2022-09-07T17:16:01.529Z,31.67
2022-09-07T17:21:14.356Z,32.01
2022-09-07T17:23:51.916Z,32.05
2022-09-07T17:26:20.994Z,32.11
2022-09-07T17:28:47.412Z,32.17
2022-09-07T17:32:24.002Z,32.24
2022-09-07T17:34:00.105Z,32.36
2022-09-07T17:36:26.463Z,32.48
2022-09-07T17:41:39.179Z,33.41
2022-09-07T17:44:05.531Z,32.79
2022-09-07T17:46:31.886Z,32.53
2022-09-07T17:48:58.265Z,32.47
2022-09-07T17:51:24.623Z,32.38
2022-09-07T17:53:50.998Z,32.19
2022-09-07T17:56:17.371Z,31.98
2022-09-07T17:58:43.795Z,32.00
2022-09-07T18:01:10.204Z,31.85
2022-09-07T18:03:37.115Z,31.70
2022-09-07T18:06:03.753Z,31.57
2022-09-07T18:08:30.113Z,31.51
2022-09-07T18:13:43.213Z,31.32
2022-09-07T18:16:09.879Z,31.25
2022-09-07T18:18:36.223Z,31.76
2022-09-07T18:21:03.305Z,31.58
2022-09-07T18:23:29.893Z,31.38
2022-09-07T18:25:56.331Z,31.18
2022-09-07T18:31:09.262Z,31.03
2022-09-07T18:33:35.639Z,31.00
2022-09-07T18:36:01.973Z,30.96
2022-09-07T18:38:28.572Z,30.99
2022-09-07T18:40:54.929Z,30.92
2022-09-07T18:43:21.286Z,30.84
2022-09-07T18:45:47.707Z,30.87
2022-09-07T18:48:14.048Z,30.75
2022-09-07T18:50:40.960Z,30.65
2022-09-07T18:53:16.452Z,30.76
2022-09-07T18:55:43.344Z,31.22
2022-09-07T18:58:09.715Z,30.90
2022-09-07T19:00:36.123Z,30.75
2022-09-07T19:03:02.484Z,30.64
2022-09-07T19:08:15.193Z,30.45
2022-09-07T19:10:41.566Z,30.35
2022-09-07T19:13:07.940Z,30.34
2022-09-07T19:15:37.152Z,30.24
2022-09-07T19:18:04.118Z,30.14
2022-09-07T19:20:30.459Z,30.15
2022-09-07T19:22:56.793Z,30.06
2022-09-07T19:25:23.193Z,30.02
2022-09-07T19:27:49.605Z,29.58
2022-09-07T19:30:15.957Z,30.41
2022-09-07T19:32:42.335Z,30.28
2022-09-07T19:35:08.724Z,29.87
2022-09-07T19:37:35.068Z,29.67
2022-09-07T19:40:01.509Z,29.68
2022-09-07T19:42:27.948Z,29.46
2022-09-07T19:44:57.281Z,29.43
2022-09-07T19:47:23.698Z,29.36
2022-09-07T19:49:50.037Z,29.37
2022-09-07T19:52:16.374Z,29.33
2022-09-07T19:54:45.495Z,29.25
2022-09-07T19:57:11.860Z,29.16
2022-09-07T19:59:38.200Z,29.13
2022-09-07T20:02:04.576Z,29.11
2022-09-07T20:04:30.971Z,29.07
2022-09-07T20:06:57.380Z,28.54
2022-09-07T20:09:23.735Z,29.61
2022-09-07T20:11:50.074Z,29.19
2022-09-07T20:14:16.425Z,28.99
2022-09-07T20:16:42.831Z,28.86
2022-09-07T20:19:09.374Z,28.72
2022-09-07T20:21:35.720Z,28.66
2022-09-07T20:24:02.131Z,28.69
2022-09-07T20:26:28.476Z,28.56
2022-09-07T20:29:10.682Z,28.66
2022-09-07T20:31:41.296Z,28.52
2022-09-07T20:34:07.673Z,28.50
2022-09-07T20:36:34.043Z,28.53
2022-09-07T20:39:00.416Z,28.44
2022-09-07T20:41:26.767Z,28.49
2022-09-07T20:43:53.114Z,27.82
2022-09-07T20:46:19.516Z,29.22
2022-09-07T20:48:45.925Z,28.76
2022-09-07T20:51:12.281Z,28.45
2022-09-07T20:53:38.631Z,28.38
2022-09-07T20:56:04.985Z,28.25
2022-09-07T20:58:31.343Z,28.14
2022-09-07T21:00:57.833Z,28.20
2022-09-07T21:03:24.217Z,28.25
2022-09-07T21:05:50.554Z,28.21
2022-09-07T21:08:16.906Z,28.15
2022-09-07T21:10:43.252Z,28.31
2022-09-07T21:13:09.623Z,28.15
2022-09-07T21:15:35.990Z,28.17
2022-09-07T21:18:02.322Z,28.07
2022-09-07T21:20:28.659Z,27.88
2022-09-07T21:22:55.038Z,28.86
2022-09-07T21:25:21.402Z,28.74
2022-09-07T21:27:47.738Z,28.29
2022-09-07T21:30:14.114Z,28.10
2022-09-07T21:32:40.460Z,27.97
2022-09-07T21:35:06.809Z,27.92
2022-09-07T21:37:33.182Z,27.82
2022-09-07T21:39:59.566Z,27.87
2022-09-07T21:42:25.935Z,27.91
2022-09-07T21:44:52.737Z,27.82
2022-09-07T21:47:19.090Z,27.88
2022-09-07T21:49:45.432Z,27.84
2022-09-07T21:52:11.825Z,27.73
2022-09-07T21:54:38.155Z,27.82
2022-09-07T21:57:04.484Z,27.73
2022-09-07T21:59:30.857Z,27.93
2022-09-07T22:01:57.246Z,28.93
2022-09-07T22:04:23.626Z,28.34
2022-09-07T22:06:51.131Z,28.00
2022-09-07T22:09:17.478Z,27.97
2022-09-07T22:11:46.075Z,27.90
2022-09-07T22:14:12.704Z,27.87
2022-09-07T22:16:39.089Z,27.84
2022-09-07T22:19:05.468Z,27.96
2022-09-07T22:21:31.843Z,27.93
2022-09-07T22:23:58.211Z,27.94
2022-09-07T22:26:24.569Z,27.99
2022-09-07T22:28:50.928Z,27.95
2022-09-07T22:31:17.341Z,28.06
2022-09-07T22:33:43.774Z,28.04
2022-09-07T22:36:11.409Z,27.40
2022-09-07T22:38:37.889Z,28.83
2022-09-07T22:41:04.226Z,28.41
2022-09-07T22:43:30.588Z,28.19
2022-09-07T22:45:56.930Z,28.01
2022-09-07T22:48:23.321Z,27.83
2022-09-07T22:50:49.719Z,27.88
2022-09-07T22:53:16.134Z,27.84
2022-09-07T22:55:42.527Z,27.85
2022-09-07T22:58:08.914Z,27.81
2022-09-07T23:00:35.238Z,27.92
2022-09-07T23:03:01.600Z,27.96
2022-09-07T23:05:27.973Z,27.85
2022-09-07T23:07:54.337Z,27.85
2022-09-07T23:10:20.677Z,28.04
2022-09-07T23:12:47.042Z,27.72
2022-09-07T23:15:13.369Z,28.70
2022-09-07T23:17:39.717Z,28.61
2022-09-07T23:20:06.086Z,28.28
2022-09-07T23:22:32.414Z,27.93
2022-09-07T23:25:00.075Z,28.02
2022-09-07T23:27:26.439Z,27.75
2022-09-07T23:29:52.778Z,27.80
2022-09-07T23:32:19.120Z,27.81
2022-09-07T23:34:45.560Z,27.85
2022-09-07T23:37:11.896Z,27.80
2022-09-07T23:39:38.305Z,27.79
2022-09-07T23:42:04.757Z,27.79
2022-09-07T23:44:31.087Z,27.77
2022-09-07T23:46:57.459Z,27.86
2022-09-07T23:49:23.990Z,27.81
2022-09-07T23:51:50.353Z,27.35
2022-09-07T23:54:16.696Z,28.75
2022-09-07T23:56:43.072Z,28.25
2022-09-07T23:59:09.413Z,27.91
